createdAt,value
2023-04-18T00:03:10.612Z,102939.41
2023-04-18T00:05:37.936Z,102938.50
2023-04-18T00:08:05.700Z,102938.50
2023-04-18T00:10:32.798Z,102942.72
2023-04-18T00:13:00.447Z,102945.22
2023-04-18T00:15:29.165Z,102938.38
2023-04-18T00:17:57.999Z,102942.56
2023-04-18T00:20:26.305Z,102948.47
2023-04-18T00:22:53.424Z,102946.69
2023-04-18T00:25:20.004Z,102943.25
2023-04-18T00:27:46.735Z,102950.81
2023-04-18T00:30:13.670Z,102949.91
2023-04-18T00:32:47.703Z,102951.56
2023-04-18T00:35:14.186Z,102943.00
2023-04-18T00:37:40.648Z,102949.72
2023-04-18T00:40:07.699Z,102946.31
2023-04-18T00:42:43.732Z,102953.06
2023-04-18T00:45:10.599Z,102952.16
2023-04-18T00:47:37.224Z,102947.81
2023-04-18T00:50:04.073Z,102942.69
2023-04-18T00:52:58.349Z,102945.19
2023-04-18T00:55:24.963Z,102951.09
2023-04-18T00:57:52.058Z,102949.31
2023-04-18T01:00:18.938Z,102939.84
2023-04-18T01:02:54.120Z,102940.63
2023-04-18T01:05:21.515Z,102939.69
2023-04-18T01:07:48.800Z,102939.59
2023-04-18T01:10:15.474Z,102936.97
2023-04-18T01:12:49.842Z,102936.88
2023-04-18T01:15:16.297Z,102939.31
2023-04-18T01:17:43.616Z,102941.00
2023-04-18T01:20:10.408Z,102942.59
2023-04-18T01:22:41.301Z,102934.84
2023-04-18T01:25:08.911Z,102935.59
2023-04-18T01:27:35.627Z,102932.13
2023-04-18T01:30:02.329Z,102929.53
2023-04-18T01:32:36.230Z,102932.06
2023-04-18T01:35:02.857Z,102924.38
2023-04-18T01:37:31.739Z,102922.66
2023-04-18T01:39:58.435Z,102923.44
2023-04-18T01:42:26.142Z,102920.00
2023-04-18T01:44:52.563Z,102919.09
2023-04-18T01:47:19.080Z,102918.19
2023-04-18T01:49:48.155Z,102920.72
2023-04-18T01:52:28.052Z,102913.88
2023-04-18T01:54:54.523Z,102916.41
2023-04-18T01:57:21.046Z,102926.53
2023-04-18T01:59:47.468Z,102923.91
2023-04-18T02:02:14.210Z,102920.50
2023-04-18T02:04:40.855Z,102919.63
2023-04-18T02:07:07.279Z,102913.69
2023-04-18T02:09:33.695Z,102919.53
2023-04-18T02:12:02.539Z,102916.94
2023-04-18T02:14:32.202Z,102922.81
2023-04-18T02:16:59.657Z,102917.66
2023-04-18T02:19:26.147Z,102919.34
2023-04-18T02:21:53.056Z,102926.94
2023-04-18T02:24:19.399Z,102917.53
2023-04-18T02:26:45.869Z,102917.47
2023-04-18T02:29:12.456Z,102917.44
2023-04-18T02:31:42.032Z,102918.19
2023-04-18T02:34:08.662Z,102913.91
2023-04-18T02:36:35.208Z,102920.63
2023-04-18T02:39:01.788Z,102920.56
2023-04-18T02:41:28.396Z,102919.69
2023-04-18T02:44:10.398Z,102922.19
2023-04-18T02:46:36.759Z,102926.34
2023-04-18T02:49:03.422Z,102930.41
2023-04-18T02:51:29.852Z,102921.03
2023-04-18T02:54:00.509Z,102925.16
2023-04-18T02:56:26.977Z,102930.06
2023-04-18T02:58:53.512Z,102929.97
2023-04-18T03:01:19.975Z,102926.50
2023-04-18T03:03:59.937Z,102917.09
2023-04-18T03:06:27.212Z,102934.84
2023-04-18T03:08:55.206Z,102922.88
2023-04-18T03:11:22.523Z,102920.34
2023-04-18T03:14:01.562Z,102914.28
2023-04-18T03:16:28.234Z,102912.53
2023-04-18T03:18:54.604Z,102922.69
2023-04-18T03:21:20.919Z,102913.31
2023-04-18T03:23:49.650Z,102916.66
2023-04-18T03:26:16.160Z,102920.88
2023-04-18T03:28:42.606Z,102925.03
2023-04-18T03:31:09.183Z,102920.75
2023-04-18T03:33:39.316Z,102927.47
2023-04-18T03:36:06.270Z,102927.31
2023-04-18T03:38:32.708Z,102925.56
2023-04-18T03:40:59.120Z,102933.16
2023-04-18T03:43:58.858Z,102938.13
2023-04-18T03:46:25.327Z,102935.53
2023-04-18T03:48:51.849Z,102934.63
2023-04-18T03:51:18.465Z,102937.06
2023-04-18T03:54:01.548Z,102934.44
2023-04-18T03:56:28.017Z,102937.78
2023-04-18T03:58:54.391Z,102928.41
2023-04-18T04:01:21.635Z,102935.06
2023-04-18T04:04:12.199Z,102941.78
2023-04-18T04:06:39.213Z,102940.16
2023-04-18T04:09:05.638Z,102935.97
2023-04-18T04:11:32.050Z,102935.22
2023-04-18T04:13:58.506Z,102930.19
2023-04-18T04:16:25.075Z,102937.06
2023-04-18T04:18:51.533Z,102944.84
2023-04-18T04:21:20.081Z,102938.94
2023-04-18T04:23:49.912Z,102926.38
2023-04-18T04:26:16.678Z,102936.69
2023-04-18T04:28:43.509Z,102937.63
2023-04-18T04:31:10.469Z,102936.88
2023-04-18T04:33:46.588Z,102934.44
2023-04-18T04:36:16.716Z,102938.78
2023-04-18T04:38:45.005Z,102937.19
2023-04-18T04:41:11.762Z,102939.75
2023-04-18T04:43:52.346Z,102940.66
2023-04-18T04:46:20.281Z,102939.00
2023-04-18T04:48:46.950Z,102944.19
2023-04-18T04:51:13.332Z,102944.25
2023-04-18T04:54:11.229Z,102951.94
2023-04-18T04:56:38.029Z,102947.78
2023-04-18T04:59:04.486Z,102952.88
2023-04-18T05:01:30.972Z,102955.50
2023-04-18T05:03:57.722Z,102951.31
2023-04-18T05:06:24.668Z,102957.31
2023-04-18T05:08:51.386Z,102954.81
2023-04-18T05:11:18.172Z,102955.66
2023-04-18T05:13:46.027Z,102959.13
2023-04-18T05:16:12.472Z,102964.22
2023-04-18T05:18:40.374Z,102957.44
2023-04-18T05:21:07.502Z,102954.91
2023-04-18T05:23:40.465Z,102953.31
2023-04-18T05:26:07.081Z,102952.56
2023-04-18T05:28:33.509Z,102955.19
2023-04-18T05:31:02.845Z,102960.38
2023-04-18T05:33:31.277Z,102968.88
2023-04-18T05:35:58.550Z,102970.63
2023-04-18T05:38:25.534Z,102968.19
2023-04-18T05:40:52.064Z,102975.03
2023-04-18T05:43:23.336Z,102964.09
2023-04-18T05:45:52.039Z,102973.53
2023-04-18T05:48:18.768Z,102969.38
2023-04-18T05:50:45.820Z,102971.94
2023-04-18T05:53:17.541Z,102970.31
2023-04-18T05:55:46.429Z,102977.22
2023-04-18T05:58:13.058Z,102970.47
2023-04-18T06:00:39.518Z,102983.31
2023-04-18T06:03:16.944Z,102977.50
2023-04-18T06:05:43.894Z,102972.47
2023-04-18T06:08:10.393Z,102975.94
2023-04-18T06:10:38.994Z,102976.13
2023-04-18T06:13:10.142Z,102975.34
2023-04-18T06:15:36.612Z,102988.13
2023-04-18T06:18:03.164Z,102982.34
2023-04-18T06:20:29.669Z,102984.16
2023-04-18T06:23:19.354Z,102979.16
2023-04-18T06:25:45.879Z,102988.63
2023-04-18T06:28:12.329Z,102991.34
2023-04-18T06:30:38.705Z,102985.47
2023-04-18T06:33:10.328Z,102992.41
2023-04-18T06:35:36.902Z,102992.56
2023-04-18T06:38:03.660Z,102991.84
2023-04-18T06:40:30.158Z,102991.13
2023-04-18T06:42:59.082Z,102991.25
2023-04-18T06:45:25.702Z,102992.28
2023-04-18T06:47:53.127Z,103000.22
2023-04-18T06:50:19.664Z,103004.53
2023-04-18T06:52:48.280Z,102991.88
2023-04-18T06:55:14.827Z,102993.69
2023-04-18T06:57:42.480Z,102994.59
2023-04-18T07:00:10.335Z,102999.72
2023-04-18T07:02:38.627Z,103000.63
2023-04-18T07:05:06.226Z,103005.00
2023-04-18T07:07:33.585Z,103009.31
2023-04-18T07:10:00.625Z,103005.16
2023-04-18T07:12:34.254Z,103002.69
2023-04-18T07:15:00.852Z,102998.47
2023-04-18T07:17:27.381Z,103001.88
2023-04-18T07:19:54.047Z,103012.94
2023-04-18T07:22:21.630Z,103005.38
2023-04-18T07:24:48.031Z,103009.69
2023-04-18T07:27:15.238Z,103008.91
2023-04-18T07:29:41.679Z,103002.09
2023-04-18T07:32:08.771Z,103002.19
2023-04-18T07:34:36.328Z,102999.66
2023-04-18T07:37:03.588Z,103007.41
2023-04-18T07:39:31.896Z,102995.59
2023-04-18T07:41:58.896Z,102994.78
2023-04-18T07:44:25.433Z,103002.56
2023-04-18T07:46:52.208Z,102996.72
2023-04-18T07:49:18.864Z,102999.44
2023-04-18T07:51:45.405Z,102998.78
2023-04-18T07:54:11.843Z,102992.97
2023-04-18T07:56:38.414Z,102992.94
2023-04-18T07:59:05.157Z,102992.13
2023-04-18T08:01:31.813Z,102995.63
2023-04-18T08:04:01.770Z,103004.16
2023-04-18T08:06:29.101Z,102995.69
2023-04-18T08:08:55.744Z,102999.34
2023-04-18T08:11:22.281Z,103006.28
2023-04-18T08:13:48.976Z,102998.78
2023-04-18T08:16:17.518Z,103001.34
2023-04-18T08:18:44.441Z,103003.09
2023-04-18T08:21:11.013Z,103004.03
2023-04-18T08:23:37.749Z,102997.28
2023-04-18T08:26:04.367Z,103005.03
2023-04-18T08:28:31.045Z,102999.13
2023-04-18T08:30:57.540Z,103003.44
2023-04-18T08:33:24.585Z,103006.13
2023-04-18T08:35:51.559Z,103003.63
2023-04-18T08:38:19.180Z,103002.81
2023-04-18T08:40:46.425Z,102999.41
2023-04-18T08:43:15.039Z,102998.56
2023-04-18T08:45:45.823Z,103006.28
2023-04-18T08:48:16.257Z,103003.66
2023-04-18T08:50:44.038Z,103001.09
2023-04-18T08:53:11.109Z,103004.44
2023-04-18T08:55:37.777Z,103008.72
2023-04-18T08:58:07.032Z,103008.78
2023-04-18T09:00:34.177Z,103003.69
2023-04-18T09:03:03.790Z,103008.00
2023-04-18T09:05:30.699Z,103004.56
2023-04-18T09:07:57.424Z,103004.63
2023-04-18T09:10:29.525Z,102991.84
2023-04-18T09:12:57.684Z,102997.88
2023-04-18T09:15:27.268Z,103005.56
2023-04-18T09:17:56.356Z,103003.84
2023-04-18T09:20:43.988Z,102998.75
2023-04-18T09:23:14.844Z,102994.50
2023-04-18T09:25:44.550Z,102991.13
2023-04-18T09:28:29.093Z,102987.69
2023-04-18T09:30:58.120Z,102991.13
2023-04-18T09:33:32.654Z,102996.22
2023-04-18T09:36:22.116Z,102997.06
2023-04-18T09:38:49.366Z,102997.09
2023-04-18T09:41:19.938Z,102992.78
2023-04-18T09:43:47.994Z,102990.22
2023-04-18T09:46:17.516Z,102988.56
2023-04-18T09:48:44.514Z,102989.38
2023-04-18T09:51:14.888Z,102982.53
2023-04-18T09:53:45.089Z,102981.66
2023-04-18T09:56:26.125Z,102985.94
2023-04-18T09:58:57.151Z,102981.63
2023-04-18T10:01:28.431Z,102980.78
2023-04-18T10:03:57.204Z,102976.50
2023-04-18T10:06:27.350Z,102979.88
2023-04-18T10:08:54.783Z,102986.69
2023-04-18T10:11:22.035Z,102978.09
2023-04-18T10:13:53.688Z,102985.00
2023-04-18T10:16:20.851Z,102987.59
2023-04-18T10:18:49.467Z,102983.31
2023-04-18T10:21:16.009Z,102985.03
2023-04-18T10:23:42.636Z,102984.19
2023-04-18T10:26:10.549Z,102975.63
2023-04-18T10:28:57.384Z,102972.09
2023-04-18T10:31:28.988Z,102971.13
2023-04-18T10:34:05.202Z,102973.69
2023-04-18T10:36:32.608Z,102973.78
2023-04-18T10:39:21.397Z,102975.53
2023-04-18T10:41:51.707Z,102970.41
2023-04-18T10:44:23.220Z,102967.78
2023-04-18T10:46:53.284Z,102972.00
2023-04-18T10:49:28.957Z,102968.44
2023-04-18T10:52:01.148Z,102961.50
2023-04-18T10:54:37.694Z,102948.50
2023-04-18T10:57:05.585Z,102950.97
2023-04-18T10:59:33.715Z,102945.78
2023-04-18T11:02:06.387Z,102947.53
2023-04-18T11:04:32.990Z,102943.13
2023-04-18T11:06:59.831Z,102939.88
2023-04-18T11:09:26.480Z,102942.63
2023-04-18T11:12:08.595Z,102946.06
2023-04-18T11:14:45.542Z,102946.91
2023-04-18T11:17:28.397Z,102946.91
2023-04-18T11:20:15.823Z,102944.34
2023-04-18T11:22:55.523Z,102944.31
2023-04-18T11:25:29.028Z,102940.00
2023-04-18T11:27:59.333Z,102932.31
2023-04-18T11:30:26.053Z,102925.44
2023-04-18T11:32:54.140Z,102937.44
2023-04-18T11:35:20.780Z,102939.28
2023-04-18T11:37:49.865Z,102935.94
2023-04-18T11:40:16.568Z,102934.28
2023-04-18T11:42:43.235Z,102929.16
2023-04-18T11:45:14.512Z,102937.72
2023-04-18T11:47:46.550Z,102927.34
2023-04-18T11:50:13.992Z,102936.66
2023-04-18T11:52:42.645Z,102947.78
2023-04-18T11:55:24.899Z,102935.78
2023-04-18T11:57:59.147Z,102943.53
2023-04-18T12:00:35.173Z,102939.34
2023-04-18T12:03:04.984Z,102936.75
2023-04-18T12:05:33.672Z,102939.34
2023-04-18T12:08:11.463Z,102933.34
2023-04-18T12:10:45.082Z,102934.13
2023-04-18T12:13:11.781Z,102939.16
2023-04-18T12:15:40.603Z,102932.97
2023-04-18T12:18:10.040Z,102940.56
2023-04-18T12:20:37.762Z,102932.78
2023-04-18T12:23:04.980Z,102932.69
2023-04-18T12:25:31.920Z,102926.69
2023-04-18T12:28:03.936Z,102928.53
2023-04-18T12:30:33.363Z,102924.09
2023-04-18T12:33:02.542Z,102929.06
2023-04-18T12:35:30.592Z,102924.72
2023-04-18T12:37:59.223Z,102921.16
2023-04-18T12:40:27.115Z,102922.78
2023-04-18T12:42:55.051Z,102921.06
2023-04-18T12:45:22.919Z,102915.00
2023-04-18T12:47:51.229Z,102914.91
2023-04-18T12:50:21.768Z,102913.09
2023-04-18T12:52:48.891Z,102916.47
2023-04-18T12:55:15.886Z,102901.81
2023-04-18T12:57:43.235Z,102913.16
2023-04-18T13:00:11.184Z,102917.56
2023-04-18T13:02:40.296Z,102917.00
2023-04-18T13:05:08.666Z,102912.78
2023-04-18T13:07:37.711Z,102914.53
2023-04-18T13:10:04.931Z,102919.66
2023-04-18T13:12:31.605Z,102909.47
2023-04-18T13:14:58.260Z,102914.66
2023-04-18T13:17:25.011Z,102919.78
2023-04-18T13:19:51.977Z,102920.69
2023-04-18T13:22:21.804Z,102916.47
2023-04-18T13:24:48.361Z,102918.28
2023-04-18T13:27:15.211Z,102931.19
2023-04-18T13:29:43.365Z,102912.22
2023-04-18T13:32:10.091Z,102915.47
2023-04-18T13:34:39.810Z,102913.56
2023-04-18T13:37:06.624Z,102907.41
2023-04-18T13:39:33.732Z,102912.41
2023-04-18T13:42:03.118Z,102910.72
2023-04-18T13:44:30.944Z,102904.75
2023-04-18T13:46:58.001Z,102907.22
2023-04-18T13:49:24.724Z,102905.22
2023-04-18T13:51:57.529Z,102901.41
2023-04-18T13:54:27.442Z,102902.19
2023-04-18T13:56:54.669Z,102898.94
2023-04-18T13:59:21.251Z,102906.78
2023-04-18T14:01:49.259Z,102908.50
2023-04-18T14:04:16.779Z,102897.59
2023-04-18T14:06:43.543Z,102901.25
2023-04-18T14:09:10.048Z,102898.06
2023-04-18T14:11:36.618Z,102895.28
2023-04-18T14:14:03.477Z,102888.78
2023-04-18T14:16:32.562Z,102897.72
2023-04-18T14:19:01.077Z,102900.50
2023-04-18T14:21:27.902Z,102888.28
2023-04-18T14:23:55.324Z,102891.97
2023-04-18T14:26:22.479Z,102887.00
2023-04-18T14:28:49.049Z,102889.56
2023-04-18T14:31:16.347Z,102884.97
2023-04-18T14:33:43.523Z,102884.88
2023-04-18T14:36:10.305Z,102879.72
2023-04-18T14:38:36.831Z,102877.13
2023-04-18T14:41:06.688Z,102885.03
2023-04-18T14:43:33.264Z,102873.91
2023-04-18T14:46:00.002Z,102879.88
2023-04-18T14:48:27.250Z,102881.00
2023-04-18T14:50:58.138Z,102883.78
2023-04-18T14:53:26.555Z,102876.25
2023-04-18T14:55:53.097Z,102870.88
2023-04-18T14:58:22.102Z,102875.88
2023-04-18T15:00:49.216Z,102861.13
2023-04-18T15:03:16.889Z,102866.66
2023-04-18T15:05:46.439Z,102865.44
2023-04-18T15:08:14.528Z,102860.94
2023-04-18T15:10:46.612Z,102863.28
2023-04-18T15:13:13.378Z,102852.69
2023-04-18T15:15:39.986Z,102849.53
2023-04-18T15:18:08.321Z,102845.19
2023-04-18T15:20:37.223Z,102849.59
2023-04-18T15:23:03.890Z,102849.03
2023-04-18T15:25:31.066Z,102851.41
2023-04-18T15:27:58.510Z,102844.41
2023-04-18T15:30:25.581Z,102851.19
2023-04-18T15:32:53.922Z,102845.09
2023-04-18T15:35:20.762Z,102842.66
2023-04-18T15:37:47.523Z,102841.44
2023-04-18T15:40:16.242Z,102846.59
2023-04-18T15:42:43.722Z,102839.31
2023-04-18T15:45:11.004Z,102840.38
2023-04-18T15:47:38.746Z,102843.28
2023-04-18T15:50:06.049Z,102835.28
2023-04-18T15:52:32.898Z,102837.56
2023-04-18T15:55:00.317Z,102832.34
2023-04-18T15:57:27.011Z,102831.53
2023-04-18T15:59:54.009Z,102834.13
2023-04-18T16:02:20.923Z,102826.13
2023-04-18T16:04:47.615Z,102825.78
2023-04-18T16:07:14.124Z,102834.59
2023-04-18T16:09:40.597Z,102838.50
2023-04-18T16:12:08.164Z,102834.59
2023-04-18T16:14:34.982Z,102829.03
2023-04-18T16:17:01.805Z,102834.03
2023-04-18T16:19:28.475Z,102830.63
2023-04-18T16:21:55.070Z,102818.28
2023-04-18T16:24:21.677Z,102825.16
2023-04-18T16:26:48.186Z,102818.66
2023-04-18T16:29:14.880Z,102828.81
2023-04-18T16:31:42.725Z,102841.50
2023-04-18T16:34:09.686Z,102832.59
2023-04-18T16:36:36.445Z,102842.38
2023-04-18T16:39:03.029Z,102843.38
2023-04-18T16:41:29.538Z,102844.59
2023-04-18T16:43:56.082Z,102844.78
2023-04-18T16:46:22.781Z,102840.06
2023-04-18T16:48:50.477Z,102845.28
2023-04-18T16:51:18.973Z,102838.81
2023-04-18T16:53:46.751Z,102830.13
2023-04-18T16:56:13.248Z,102833.44
2023-04-18T16:58:39.757Z,102831.22
2023-04-18T17:01:08.257Z,102829.38
2023-04-18T17:03:35.034Z,102823.94
2023-04-18T17:06:01.842Z,102823.81
2023-04-18T17:08:28.983Z,102825.78
2023-04-18T17:10:55.622Z,102832.00
2023-04-18T17:13:26.797Z,102834.88
2023-04-18T17:15:53.700Z,102833.69
2023-04-18T17:18:20.384Z,102832.16
2023-04-18T17:20:47.034Z,102835.81
2023-04-18T17:23:14.044Z,102834.28
2023-04-18T17:25:40.708Z,102833.75
2023-04-18T17:28:07.239Z,102832.97
2023-04-18T17:30:33.862Z,102840.78
2023-04-18T17:33:00.828Z,102839.22
2023-04-18T17:35:27.573Z,102838.41
2023-04-18T17:37:54.128Z,102846.13
2023-04-18T17:40:20.674Z,102843.63
2023-04-18T17:42:48.352Z,102842.84
2023-04-18T17:45:14.908Z,102839.47
2023-04-18T17:47:41.499Z,102841.22
2023-04-18T17:50:08.405Z,102846.44
2023-04-18T17:52:35.094Z,102842.19
2023-04-18T17:55:01.811Z,102845.03
2023-04-18T17:57:30.438Z,102845.25
2023-04-18T17:59:57.073Z,102850.47
2023-04-18T18:02:24.131Z,102852.31
2023-04-18T18:04:51.672Z,102846.41
2023-04-18T18:07:18.454Z,102852.50
2023-04-18T18:09:47.820Z,102848.28
2023-04-18T18:12:14.535Z,102849.16
2023-04-18T18:14:41.088Z,102849.22
2023-04-18T18:17:07.755Z,102850.22
2023-04-18T18:19:36.435Z,102859.75
2023-04-18T18:22:03.134Z,102860.72
2023-04-18T18:24:29.703Z,102858.19
2023-04-18T18:26:56.853Z,102859.13
2023-04-18T18:29:23.469Z,102861.81
2023-04-18T18:31:50.337Z,102857.59
2023-04-18T18:34:17.094Z,102859.41
2023-04-18T18:36:43.646Z,102865.41
2023-04-18T18:39:11.182Z,102861.16
2023-04-18T18:41:37.894Z,102867.22
2023-04-18T18:44:04.549Z,102869.00
2023-04-18T18:46:31.217Z,102868.16
2023-04-18T18:48:57.791Z,102870.81
2023-04-18T18:51:24.340Z,102876.00
2023-04-18T18:53:51.939Z,102874.34
2023-04-18T18:56:18.420Z,102877.84
2023-04-18T18:58:44.934Z,102882.16
2023-04-18T19:01:11.664Z,102877.91
2023-04-18T19:03:39.634Z,102879.66
2023-04-18T19:06:07.405Z,102885.69
2023-04-18T19:08:34.288Z,102894.25
2023-04-18T19:11:00.962Z,102891.72
2023-04-18T19:13:27.701Z,102892.59
2023-04-18T19:15:54.370Z,102899.47
2023-04-18T19:18:21.453Z,102902.94
2023-04-18T19:20:50.285Z,102907.22
2023-04-18T19:23:19.753Z,102911.50
2023-04-18T19:25:47.097Z,102912.38
2023-04-18T19:28:14.450Z,102910.66
2023-04-18T19:30:42.271Z,102916.66
2023-04-18T19:33:09.070Z,102918.38
2023-04-18T19:35:37.958Z,102924.38
2023-04-18T19:38:04.789Z,102920.97
2023-04-18T19:40:31.349Z,102922.66
2023-04-18T19:42:58.329Z,102932.06
2023-04-18T19:45:24.941Z,102929.50
2023-04-18T19:47:51.748Z,102938.06
2023-04-18T19:50:18.502Z,102938.06
2023-04-18T19:52:45.383Z,102938.06
2023-04-18T19:55:12.058Z,102940.63
2023-04-18T19:57:40.080Z,102946.59
2023-04-18T20:00:11.266Z,102941.47
2023-04-18T20:02:38.506Z,102952.56
2023-04-18T20:05:06.421Z,102950.00
2023-04-18T20:07:33.625Z,102954.25
2023-04-18T20:10:00.681Z,102958.50
2023-04-18T20:12:27.675Z,102962.78
2023-04-18T20:14:55.176Z,102955.94
2023-04-18T20:17:21.765Z,102955.06
2023-04-18T20:19:49.832Z,102960.19
2023-04-18T20:22:17.175Z,102957.63
2023-04-18T20:24:44.971Z,102955.03
2023-04-18T20:27:11.830Z,102962.72
2023-04-18T20:29:38.268Z,102960.97
2023-04-18T20:32:05.924Z,102960.13
2023-04-18T20:34:32.688Z,102966.06
2023-04-18T20:37:00.148Z,102963.50
2023-04-18T20:39:28.099Z,102967.72
2023-04-18T20:41:57.696Z,102966.84
2023-04-18T20:44:24.980Z,102959.16
2023-04-18T20:46:54.879Z,102954.88
2023-04-18T20:49:21.413Z,102956.56
2023-04-18T20:51:48.053Z,102964.22
2023-04-18T20:54:15.084Z,102977.84
2023-04-18T20:56:41.915Z,102972.69
2023-04-18T20:59:08.525Z,102973.50
2023-04-18T21:01:36.848Z,102972.63
2023-04-18T21:04:03.878Z,102982.88
2023-04-18T21:06:31.032Z,102980.28
2023-04-18T21:08:57.576Z,102981.13
2023-04-18T21:11:24.155Z,102981.97
2023-04-18T21:13:50.891Z,102983.63
2023-04-18T21:16:17.406Z,102991.31
2023-04-18T21:18:43.846Z,102985.31
2023-04-18T21:21:10.357Z,102985.31
2023-04-18T21:23:44.469Z,102992.97
2023-04-18T21:26:13.180Z,102988.69
2023-04-18T21:29:00.520Z,102995.47
2023-04-18T21:31:29.749Z,102994.63
2023-04-18T21:33:57.886Z,102985.22
2023-04-18T21:36:27.012Z,102992.00
2023-04-18T21:38:54.982Z,102992.00
2023-04-18T21:41:22.612Z,102991.97
2023-04-18T21:43:49.656Z,102983.41
2023-04-18T21:46:16.633Z,102984.25
2023-04-18T21:48:45.580Z,102991.88
2023-04-18T21:51:13.783Z,102985.06
2023-04-18T21:53:41.158Z,102985.88
2023-04-18T21:56:08.479Z,102984.16
2023-04-18T21:58:35.580Z,102988.38
2023-04-18T22:01:02.411Z,102988.38
2023-04-18T22:03:29.604Z,102987.50
2023-04-18T22:05:56.636Z,102984.94
2023-04-18T22:08:25.821Z,102990.03
2023-04-18T22:10:58.412Z,102988.31
2023-04-18T22:13:30.068Z,102986.56
2023-04-18T22:15:58.367Z,102975.44
2023-04-18T22:18:25.234Z,102983.09
2023-04-18T22:20:53.767Z,102975.41
2023-04-18T22:23:20.748Z,102981.38
2023-04-18T22:25:47.496Z,102983.03
2023-04-18T22:28:14.049Z,102977.91
2023-04-18T22:30:40.790Z,102983.84
2023-04-18T22:33:08.372Z,102978.72
2023-04-18T22:35:34.957Z,102981.25
2023-04-18T22:38:01.342Z,102978.69
2023-04-18T22:40:27.922Z,102985.47
2023-04-18T22:42:54.542Z,102979.47
2023-04-18T22:45:21.123Z,102983.72
2023-04-18T22:47:47.779Z,102985.38
2023-04-18T22:50:15.095Z,102985.38
2023-04-18T22:52:41.790Z,102994.69
2023-04-18T22:55:08.906Z,102995.56
2023-04-18T22:57:35.509Z,102987.84
2023-04-18T23:00:02.319Z,102993.78
2023-04-18T23:02:29.043Z,102995.50
2023-04-18T23:04:58.354Z,102993.75
2023-04-18T23:07:24.852Z,103002.22
2023-04-18T23:09:52.331Z,102998.78
2023-04-18T23:12:19.127Z,102995.38
2023-04-18T23:14:45.938Z,103002.16
2023-04-18T23:17:12.418Z,103009.78
2023-04-18T23:19:39.016Z,103019.13
2023-04-18T23:22:05.913Z,103020.00
2023-04-18T23:24:32.413Z,103021.66
2023-04-18T23:26:58.976Z,103014.81
2023-04-18T23:29:25.508Z,103016.53
2023-04-18T23:31:52.261Z,103013.97
2023-04-18T23:34:18.882Z,103010.59
2023-04-18T23:36:45.696Z,103014.00
2023-04-18T23:39:12.290Z,103017.47
2023-04-18T23:41:38.757Z,103010.66
2023-04-18T23:44:05.754Z,103005.53
2023-04-18T23:46:32.969Z,103007.28
2023-04-18T23:49:00.858Z,103004.72
2023-04-18T23:51:28.108Z,103003.88
2023-04-18T23:53:54.646Z,103006.44
2023-04-18T23:56:23.313Z,103004.69
2023-04-18T23:58:50.216Z,103001.28
